Time;durP1;ratioP1;P1;durP2;ratioP2;P2;SDS_P1;SDS_P2;PMS_P1;PMS_P2;Temp;Humidity;BMP_temperature;BMP_pressure;BME280_temperature;BME280_humidity;BME280_pressure;Samples;Min_cycle;Max_cycle;Signal;HPM_P1;HPM_P2
2024/01/29 00:02:25;;;;;;;82.43;34.43;;;4.40;99.90;;;;;;6216999;23;20175;-61
2024/01/29 00:04:52;;;;;;;95.10;33.57;;;4.40;99.90;;;;;;6217275;23;20205;-60
2024/01/29 00:07:19;;;;;;;113.37;35.57;;;4.40;99.90;;;;;;6217291;23;20181;-60
2024/01/29 00:09:46;;;;;;;84.50;34.73;;;4.40;99.90;;;;;;6190552;23;20178;-61
2024/01/29 00:12:13;;;;;;;78.93;32.87;;;4.40;99.90;;;;;;6191341;23;20182;-60
2024/01/29 00:14:41;;;;;;;79.87;32.27;;;4.40;99.90;;;;;;6216653;23;20268;-61
2024/01/29 00:17:09;;;;;;;75.77;30.70;;;4.40;99.90;;;;;;6217425;23;20484;-61
2024/01/29 00:19:36;;;;;;;85.83;32.40;;;4.40;99.90;;;;;;6165940;23;20182;-61
2024/01/29 00:22:03;;;;;;;77.50;33.87;;;4.40;99.90;;;;;;6217275;23;20232;-60
2024/01/29 00:24:30;;;;;;;83.57;33.53;;;4.30;99.90;;;;;;6190267;23;20196;-60
2024/01/29 00:26:58;;;;;;;72.43;32.17;;;4.40;99.90;;;;;;6217218;23;20175;-60
2024/01/29 00:29:25;;;;;;;85.57;34.67;;;4.30;99.90;;;;;;6216422;23;20520;-60
2024/01/29 00:31:52;;;;;;;83.67;33.80;;;4.30;99.90;;;;;;6217149;23;20474;-60
2024/01/29 00:34:20;;;;;;;88.33;35.00;;;4.30;99.90;;;;;;6216210;23;20276;-60
2024/01/29 00:36:47;;;;;;;83.07;33.93;;;4.30;99.90;;;;;;6217361;23;20174;-60
2024/01/29 00:39:14;;;;;;;74.03;32.97;;;4.30;99.90;;;;;;6216701;23;20229;-60
2024/01/29 00:41:41;;;;;;;86.60;34.10;;;4.30;99.90;;;;;;6217304;23;20228;-60
2024/01/29 00:44:08;;;;;;;76.43;32.67;;;4.30;99.90;;;;;;6217154;23;20189;-60
2024/01/29 00:46:39;;;;;;;78.47;34.57;;;4.30;99.90;;;;;;6216239;23;20170;-60
2024/01/29 00:49:06;;;;;;;104.43;36.63;;;4.40;99.90;;;;;;6217108;23;20550;-61
2024/01/29 00:51:35;;;;;;;90.27;35.90;;;4.40;99.90;;;;;;6190330;23;20178;-61
2024/01/29 00:54:02;;;;;;;78.17;33.10;;;4.30;99.90;;;;;;6216507;23;20482;-60
2024/01/29 00:56:29;;;;;;;83.87;33.03;;;4.40;99.90;;;;;;6216412;23;20579;-60
2024/01/29 00:58:56;;;;;;;83.50;33.63;;;4.30;99.90;;;;;;6216786;23;20174;-58
2024/01/29 01:01:24;;;;;;;77.77;33.03;;;4.40;99.90;;;;;;6216647;23;20171;-58
2024/01/29 01:03:51;;;;;;;98.33;35.13;;;4.30;99.90;;;;;;6216818;23;20517;-64
2024/01/29 01:06:18;;;;;;;82.60;33.20;;;4.40;99.90;;;;;;6216200;23;20252;-60
2024/01/29 01:08:46;;;;;;;121.53;32.77;;;4.40;99.90;;;;;;6216472;23;20174;-60
2024/01/29 01:11:13;;;;;;;97.00;33.77;;;4.40;99.90;;;;;;6216605;23;20183;-60
2024/01/29 01:13:40;;;;;;;89.00;33.63;;;4.40;99.90;;;;;;6216688;23;20347;-60
2024/01/29 01:16:07;;;;;;;75.30;32.37;;;4.40;99.90;;;;;;6216589;23;20181;-60
2024/01/29 01:18:34;;;;;;;96.23;33.77;;;4.40;99.90;;;;;;6190516;23;20655;-60
2024/01/29 01:21:01;;;;;;;93.80;34.10;;;4.40;99.90;;;;;;6216193;23;20190;-60
2024/01/29 01:23:28;;;;;;;85.97;34.00;;;4.30;99.90;;;;;;6216497;23;20262;-60
2024/01/29 01:25:56;;;;;;;77.43;36.20;;;4.30;99.90;;;;;;6216206;23;20175;-60
2024/01/29 01:28:23;;;;;;;98.20;34.60;;;4.30;99.90;;;;;;6216360;23;20185;-61
2024/01/29 01:30:50;;;;;;;103.23;36.90;;;4.30;99.90;;;;;;6216770;23;20178;-61
2024/01/29 01:33:17;;;;;;;94.77;36.80;;;4.20;99.90;;;;;;6216595;23;20195;-60
2024/01/29 01:35:44;;;;;;;101.03;38.80;;;4.30;99.90;;;;;;6216807;23;20181;-60
2024/01/29 01:38:11;;;;;;;97.27;35.40;;;4.20;99.90;;;;;;6215736;23;20246;-60
2024/01/29 01:40:38;;;;;;;87.80;34.60;;;4.30;99.90;;;;;;6216032;23;20171;-61
2024/01/29 01:43:23;;;;;;;85.27;33.40;;;4.30;99.90;;;;;;6216138;23;20240;-60
2024/01/29 01:46:19;;;;;;;83.00;34.33;;;4.30;99.90;;;;;;6216750;23;20225;-60
2024/01/29 01:48:47;;;;;;;74.33;34.57;;;4.30;99.90;;;;;;6204836;23;20189;-61
2024/01/29 01:51:15;;;;;;;99.77;37.70;;;4.20;99.90;;;;;;6216668;23;20181;-61
2024/01/29 01:53:44;;;;;;;79.77;33.83;;;4.30;99.90;;;;;;6216285;23;20202;-60
2024/01/29 01:56:13;;;;;;;92.90;36.07;;;4.30;99.90;;;;;;6215853;23;20677;-61
2024/01/29 01:58:41;;;;;;;88.13;35.30;;;4.30;99.90;;;;;;6216868;23;20159;-61
2024/01/29 02:01:09;;;;;;;82.17;36.20;;;4.30;99.90;;;;;;6215954;23;20232;-60
2024/01/29 02:03:36;;;;;;;99.60;36.77;;;4.30;99.90;;;;;;6216575;23;20478;-61
2024/01/29 02:06:04;;;;;;;87.90;36.07;;;4.30;99.90;;;;;;6216259;23;20594;-60
2024/01/29 02:08:31;;;;;;;108.57;34.63;;;4.30;99.90;;;;;;6216048;23;20188;-60
2024/01/29 02:11:00;;;;;;;106.60;37.43;;;4.30;99.90;;;;;;6215968;23;20233;-60
2024/01/29 02:13:27;;;;;;;134.00;36.20;;;4.30;99.90;;;;;;6216324;23;20220;-60
2024/01/29 02:15:54;;;;;;;79.30;36.33;;;4.30;99.90;;;;;;6189916;23;20183;-60
2024/01/29 02:18:21;;;;;;;83.87;36.90;;;4.30;99.90;;;;;;6217915;23;20198;-61
2024/01/29 02:20:49;;;;;;;94.73;36.33;;;4.30;99.90;;;;;;6218325;23;20229;-60
2024/01/29 02:23:16;;;;;;;102.97;36.90;;;4.30;99.90;;;;;;6218000;23;20170;-60
2024/01/29 02:25:43;;;;;;;77.07;34.47;;;4.30;99.90;;;;;;6218192;23;20177;-60
2024/01/29 02:28:09;;;;;;;85.77;35.07;;;4.30;99.90;;;;;;6217934;23;20242;-58
2024/01/29 02:30:37;;;;;;;80.33;35.53;;;4.30;99.90;;;;;;6218347;23;20175;-58
2024/01/29 02:33:04;;;;;;;124.47;33.63;;;4.30;99.90;;;;;;6217937;23;20253;-58
2024/01/29 02:35:31;;;;;;;139.40;37.53;;;4.30;99.90;;;;;;6218342;23;20199;-58
2024/01/29 02:37:58;;;;;;;100.40;34.17;;;4.30;99.90;;;;;;6217984;23;20162;-58
2024/01/29 02:40:25;;;;;;;90.80;34.73;;;4.20;99.90;;;;;;6217603;23;20204;-58
2024/01/29 02:42:53;;;;;;;100.77;37.03;;;4.20;99.90;;;;;;6218074;23;20184;-58
2024/01/29 02:45:20;;;;;;;95.57;34.57;;;4.20;99.90;;;;;;6218028;23;20186;-59
2024/01/29 02:47:47;;;;;;;112.87;34.53;;;4.20;99.90;;;;;;6218033;23;20260;-58
2024/01/29 02:50:14;;;;;;;91.03;34.57;;;4.20;99.90;;;;;;6218071;23;20181;-58
2024/01/29 02:52:42;;;;;;;98.43;34.60;;;4.20;99.90;;;;;;6217717;23;20881;-58
2024/01/29 02:55:09;;;;;;;125.00;36.73;;;4.20;99.90;;;;;;6217486;23;20186;-61
2024/01/29 02:57:36;;;;;;;87.47;35.53;;;4.20;99.90;;;;;;6217934;23;20201;-58
2024/01/29 03:00:04;;;;;;;116.90;36.90;;;4.20;99.90;;;;;;6217907;23;20174;-58
2024/01/29 03:02:31;;;;;;;113.73;35.90;;;4.10;99.90;;;;;;6217723;23;20197;-58
2024/01/29 03:04:58;;;;;;;102.33;35.10;;;4.20;99.90;;;;;;6217974;23;20234;-58
2024/01/29 03:07:26;;;;;;;111.13;34.97;;;4.10;99.90;;;;;;6217542;23;20182;-58
2024/01/29 03:09:53;;;;;;;98.93;36.53;;;4.10;99.90;;;;;;6217866;23;20189;-58
2024/01/29 03:12:20;;;;;;;112.07;35.93;;;4.10;99.90;;;;;;6217694;23;20186;-58
2024/01/29 03:14:47;;;;;;;147.30;39.20;;;4.10;99.90;;;;;;6217686;23;20615;-58
2024/01/29 03:17:14;;;;;;;108.37;35.53;;;4.10;99.90;;;;;;6191528;23;20182;-60
2024/01/29 03:19:41;;;;;;;131.37;39.33;;;4.10;99.90;;;;;;6218039;23;20198;-58
2024/01/29 03:22:09;;;;;;;121.07;36.77;;;4.00;99.90;;;;;;6217619;23;20280;-58
2024/01/29 03:24:36;;;;;;;106.30;37.03;;;4.00;99.90;;;;;;6217782;23;20183;-58
2024/01/29 03:27:03;;;;;;;89.30;35.70;;;4.00;99.90;;;;;;6216778;23;20198;-58
2024/01/29 03:29:30;;;;;;;102.57;35.57;;;4.00;99.90;;;;;;6217572;23;20177;-58
2024/01/29 03:31:57;;;;;;;103.77;34.23;;;4.00;99.90;;;;;;6217315;23;20174;-58
2024/01/29 03:34:24;;;;;;;120.97;35.17;;;4.00;99.90;;;;;;6217425;23;20697;-58
2024/01/29 03:36:51;;;;;;;98.03;34.07;;;4.00;99.90;;;;;;6217556;23;20174;-58
2024/01/29 03:39:18;;;;;;;121.63;34.37;;;4.00;99.90;;;;;;6217532;23;20229;-58
2024/01/29 03:41:45;;;;;;;98.17;32.83;;;4.00;99.90;;;;;;6217310;23;20657;-58
2024/01/29 03:44:14;;;;;;;127.57;35.93;;;4.00;99.90;;;;;;6217603;23;20190;-59
2024/01/29 03:46:41;;;;;;;133.13;39.43;;;4.00;99.90;;;;;;6217234;23;20170;-59
2024/01/29 03:49:08;;;;;;;101.80;35.57;;;4.00;99.90;;;;;;6217634;23;20175;-58
2024/01/29 03:51:36;;;;;;;103.87;37.07;;;4.00;99.90;;;;;;6217833;23;20178;-58
2024/01/29 03:54:03;;;;;;;136.63;38.77;;;4.00;99.90;;;;;;6165761;23;20280;-59
2024/01/29 03:56:31;;;;;;;117.07;40.13;;;4.00;99.90;;;;;;6217269;23;20189;-59
2024/01/29 03:58:58;;;;;;;111.50;38.87;;;4.00;99.90;;;;;;6217480;23;20175;-59
2024/01/29 04:01:26;;;;;;;114.43;43.00;;;4.00;99.90;;;;;;6217271;23;20555;-59
2024/01/29 04:03:54;;;;;;;100.97;38.70;;;4.00;99.90;;;;;;6217518;23;20186;-58
2024/01/29 04:06:22;;;;;;;127.77;39.40;;;4.00;99.90;;;;;;6217301;23;20174;-58
2024/01/29 04:08:49;;;;;;;132.33;40.47;;;4.00;99.90;;;;;;6217035;23;20174;-59
2024/01/29 04:11:16;;;;;;;154.90;43.17;;;4.00;99.90;;;;;;6217511;23;20174;-59
2024/01/29 04:13:43;;;;;;;120.53;42.50;;;4.00;99.90;;;;;;6216977;23;20437;-59
2024/01/29 04:16:11;;;;;;;152.40;42.27;;;4.00;99.90;;;;;;6217228;23;20171;-59
2024/01/29 04:18:38;;;;;;;115.57;39.10;;;4.00;99.90;;;;;;6217315;23;20475;-59
2024/01/29 04:21:07;;;;;;;167.40;41.53;;;4.00;99.90;;;;;;6217123;23;20194;-59
2024/01/29 04:23:35;;;;;;;115.63;41.30;;;3.90;99.90;;;;;;6216955;23;20163;-59
2024/01/29 04:26:02;;;;;;;120.10;43.07;;;4.00;99.90;;;;;;6217138;23;20198;-59
2024/01/29 04:28:30;;;;;;;148.57;41.67;;;4.00;99.90;;;;;;6190775;23;20182;-59
2024/01/29 04:30:57;;;;;;;196.93;43.37;;;4.00;99.90;;;;;;6191036;23;20177;-59
2024/01/29 04:33:27;;;;;;;133.83;42.93;;;4.00;99.90;;;;;;6216475;23;20167;-59
2024/01/29 04:35:54;;;;;;;159.53;44.07;;;4.00;99.90;;;;;;6216902;23;20248;-59
2024/01/29 04:38:21;;;;;;;143.20;43.83;;;3.90;99.90;;;;;;6216888;23;20257;-58
2024/01/29 04:40:48;;;;;;;167.27;45.33;;;4.00;99.90;;;;;;6216211;23;20189;-59
2024/01/29 04:43:15;;;;;;;134.03;43.00;;;3.90;99.90;;;;;;6216734;23;20598;-59
2024/01/29 04:45:42;;;;;;;275.03;46.30;;;4.00;99.90;;;;;;6216948;23;20175;-58
2024/01/29 04:48:09;;;;;;;150.40;42.90;;;4.00;99.90;;;;;;6217105;23;20677;-59
2024/01/29 04:50:37;;;;;;;152.90;45.20;;;4.00;99.90;;;;;;6216678;23;20533;-59
2024/01/29 04:53:04;;;;;;;138.93;45.30;;;4.00;99.90;;;;;;6216886;23;20236;-59
2024/01/29 04:55:31;;;;;;;135.97;43.53;;;4.00;99.90;;;;;;6216731;23;20182;-59
2024/01/29 04:57:58;;;;;;;149.00;43.53;;;4.00;99.90;;;;;;6217155;23;20181;-59
2024/01/29 05:00:25;;;;;;;151.17;43.67;;;4.00;99.90;;;;;;6190429;23;20182;-59
2024/01/29 05:02:52;;;;;;;175.77;44.57;;;4.00;99.90;;;;;;6190257;23;20175;-59
2024/01/29 05:05:19;;;;;;;166.10;43.60;;;4.00;99.90;;;;;;6216769;23;20605;-59
2024/01/29 05:07:46;;;;;;;160.97;44.37;;;4.00;99.90;;;;;;6190484;23;20575;-59
2024/01/29 05:10:15;;;;;;;169.13;41.87;;;4.00;99.90;;;;;;6216762;23;20205;-59
2024/01/29 05:12:42;;;;;;;150.43;47.37;;;4.00;99.90;;;;;;6190336;23;20236;-59
2024/01/29 05:15:11;;;;;;;154.17;48.13;;;4.00;99.90;;;;;;6216466;23;20232;-59
2024/01/29 05:17:38;;;;;;;139.80;43.03;;;3.90;99.90;;;;;;6216740;23;20174;-58
2024/01/29 05:20:07;;;;;;;141.33;44.73;;;3.90;99.90;;;;;;6216307;23;20490;-59
2024/01/29 05:22:34;;;;;;;132.53;44.90;;;4.00;99.90;;;;;;6216665;23;20174;-59
2024/01/29 05:25:02;;;;;;;133.07;43.70;;;4.00;99.90;;;;;;6216535;23;20240;-59
2024/01/29 05:27:29;;;;;;;134.33;45.10;;;4.00;99.90;;;;;;6216562;23;20181;-59
2024/01/29 05:29:56;;;;;;;129.53;43.30;;;4.00;99.90;;;;;;6216593;23;20175;-59
2024/01/29 05:32:23;;;;;;;130.70;42.90;;;4.00;99.90;;;;;;6216499;23;20174;-59
2024/01/29 05:34:50;;;;;;;117.93;44.03;;;4.00;99.90;;;;;;6216080;23;20313;-61
2024/01/29 05:37:18;;;;;;;137.87;44.87;;;4.00;99.90;;;;;;6216464;23;20187;-59
2024/01/29 05:39:45;;;;;;;133.03;43.33;;;4.00;99.90;;;;;;6216023;23;20475;-59
2024/01/29 05:42:12;;;;;;;143.30;45.17;;;4.00;99.90;;;;;;6216621;23;20269;-59
2024/01/29 05:44:39;;;;;;;141.23;45.57;;;4.00;99.90;;;;;;6216433;23;20232;-59
2024/01/29 05:47:06;;;;;;;113.00;39.87;;;4.00;99.90;;;;;;6216508;23;20182;-59
2024/01/29 05:49:33;;;;;;;117.73;40.27;;;4.00;99.90;;;;;;6216434;23;20178;-59
2024/01/29 05:52:00;;;;;;;140.00;44.87;;;4.00;99.90;;;;;;6216152;23;20169;-59
2024/01/29 05:54:28;;;;;;;129.23;41.67;;;4.00;99.90;;;;;;6215939;23;20220;-59
2024/01/29 05:56:57;;;;;;;137.87;42.67;;;3.90;99.90;;;;;;6216548;23;20182;-59
2024/01/29 05:59:24;;;;;;;135.67;43.07;;;3.90;99.90;;;;;;6216399;23;20229;-59
2024/01/29 06:01:51;;;;;;;137.53;43.07;;;3.90;99.90;;;;;;6216319;23;20456;-59
2024/01/29 06:04:18;;;;;;;162.60;44.43;;;3.90;99.90;;;;;;6216077;23;20205;-60
2024/01/29 06:06:45;;;;;;;134.40;42.50;;;3.90;99.90;;;;;;6216678;23;20178;-59
2024/01/29 06:09:13;;;;;;;148.33;45.13;;;3.90;99.90;;;;;;6216156;23;20240;-59
2024/01/29 06:11:40;;;;;;;126.23;42.33;;;3.90;99.90;;;;;;6190551;23;20172;-59
2024/01/29 06:14:07;;;;;;;132.93;43.93;;;3.90;99.90;;;;;;6216252;23;20181;-59
2024/01/29 06:16:34;;;;;;;112.17;44.00;;;3.90;99.90;;;;;;6216672;23;20214;-59
2024/01/29 06:19:01;;;;;;;111.53;42.03;;;3.90;99.90;;;;;;6215959;23;20193;-59
2024/01/29 06:21:28;;;;;;;125.80;43.67;;;3.90;99.90;;;;;;6216583;23;20178;-59
2024/01/29 06:23:56;;;;;;;122.00;42.67;;;3.90;99.90;;;;;;6215877;23;20174;-59
2024/01/29 06:26:23;;;;;;;121.27;41.93;;;3.90;99.90;;;;;;6216443;23;20173;-59
2024/01/29 06:28:50;;;;;;;114.27;41.90;;;3.90;99.90;;;;;;6190137;23;20178;-59
2024/01/29 06:31:17;;;;;;;133.40;42.17;;;3.90;99.90;;;;;;6216119;23;20173;-59
2024/01/29 06:33:44;;;;;;;103.40;40.73;;;3.90;99.90;;;;;;6216025;23;20484;-59
2024/01/29 06:36:16;;;;;;;111.27;41.97;;;3.90;99.90;;;;;;6216042;23;20221;-58
2024/01/29 06:38:43;;;;;;;117.80;41.97;;;3.90;99.90;;;;;;6216454;23;20206;-58
2024/01/29 06:41:23;;;;;;;139.83;43.00;;;3.90;99.90;;;;;;6215854;23;20596;-58
2024/01/29 06:43:52;;;;;;;115.17;42.13;;;3.90;99.90;;;;;;6216123;23;20181;-59
2024/01/29 06:46:19;;;;;;;141.80;42.33;;;4.00;99.90;;;;;;6216028;23;20179;-59
2024/01/29 06:48:46;;;;;;;114.23;43.90;;;3.90;99.90;;;;;;6216057;23;20167;-59
2024/01/29 06:51:15;;;;;;;159.30;45.40;;;3.90;99.90;;;;;;6215798;23;20185;-59
2024/01/29 06:53:43;;;;;;;137.90;44.40;;;3.90;99.90;;;;;;6215742;23;20562;-59
2024/01/29 06:56:10;;;;;;;123.60;43.93;;;3.90;99.90;;;;;;6215851;23;20194;-59
2024/01/29 06:58:37;;;;;;;123.30;45.17;;;4.00;99.90;;;;;;6216001;23;20181;-60
2024/01/29 07:01:05;;;;;;;141.77;43.03;;;4.00;99.90;;;;;;6216055;23;20173;-60
2024/01/29 07:03:33;;;;;;;152.87;44.87;;;4.00;99.90;;;;;;6217532;23;20181;-60
2024/01/29 07:06:00;;;;;;;131.97;41.03;;;4.00;99.90;;;;;;6217646;23;20626;-60
2024/01/29 07:08:27;;;;;;;122.80;44.10;;;4.00;99.90;;;;;;6217588;23;20209;-59
2024/01/29 07:10:54;;;;;;;113.17;40.73;;;4.00;99.90;;;;;;6217570;23;20175;-59
2024/01/29 07:13:22;;;;;;;111.47;42.53;;;4.00;99.90;;;;;;6218108;23;20206;-60
2024/01/29 07:15:49;;;;;;;110.70;41.47;;;4.00;99.90;;;;;;6217798;23;20495;-60
2024/01/29 07:18:17;;;;;;;105.93;42.13;;;4.00;99.90;;;;;;6217779;23;20217;-60
2024/01/29 07:20:45;;;;;;;109.77;42.00;;;4.00;99.90;;;;;;6217953;23;20229;-60
2024/01/29 07:23:12;;;;;;;110.53;40.87;;;4.00;99.90;;;;;;6218150;23;20545;-60
2024/01/29 07:25:40;;;;;;;106.60;40.80;;;4.10;99.90;;;;;;6191748;23;20178;-60
2024/01/29 07:28:08;;;;;;;85.00;36.83;;;4.10;99.90;;;;;;6217370;23;20173;-60
2024/01/29 07:30:35;;;;;;;104.90;39.00;;;4.10;99.90;;;;;;6218029;23;20256;-60
2024/01/29 07:33:03;;;;;;;120.67;40.10;;;4.20;99.90;;;;;;6217411;23;20175;-60
2024/01/29 07:35:32;;;;;;;115.97;42.53;;;4.10;99.90;;;;;;6217130;23;20205;-60
2024/01/29 07:37:59;;;;;;;103.33;39.73;;;4.10;99.90;;;;;;6191664;23;20173;-59
2024/01/29 07:40:26;;;;;;;99.37;37.53;;;4.10;99.90;;;;;;6217597;23;20195;-60
2024/01/29 07:42:53;;;;;;;104.40;41.50;;;4.20;99.90;;;;;;6217226;23;20170;-60
2024/01/29 07:45:21;;;;;;;99.37;38.53;;;4.20;99.90;;;;;;6239559;23;20637;-60
2024/01/29 07:47:48;;;;;;;105.33;40.13;;;4.20;99.90;;;;;;6245939;23;20227;-60
2024/01/29 07:50:15;;;;;;;119.50;41.47;;;4.20;99.90;;;;;;6246856;23;20165;-60
2024/01/29 07:52:42;;;;;;;105.43;40.13;;;4.20;99.90;;;;;;6247369;23;20235;-60
2024/01/29 07:55:09;;;;;;;99.73;39.33;;;4.30;99.90;;;;;;6246883;23;20193;-60
2024/01/29 07:57:39;;;;;;;96.27;39.57;;;4.30;99.90;;;;;;6247217;23;20189;-60
2024/01/29 08:00:07;;;;;;;97.30;36.83;;;4.30;99.90;;;;;;6247418;23;20196;-60
2024/01/29 08:02:34;;;;;;;123.17;39.93;;;4.30;99.90;;;;;;6246975;23;20703;-60
2024/01/29 08:05:02;;;;;;;113.60;39.03;;;4.30;99.90;;;;;;6247161;23;20487;-60
2024/01/29 08:07:29;;;;;;;97.57;38.30;;;4.30;99.90;;;;;;6246936;23;20174;-60
2024/01/29 08:10:00;;;;;;;89.17;38.67;;;4.30;99.90;;;;;;6247436;23;20627;-60
2024/01/29 08:12:29;;;;;;;112.33;38.97;;;4.30;99.90;;;;;;6247116;23;20162;-60
2024/01/29 08:14:56;;;;;;;96.73;37.80;;;4.30;99.90;;;;;;6247321;23;20170;-60
2024/01/29 08:17:23;;;;;;;99.77;37.97;;;4.30;99.90;;;;;;6220784;23;20260;-60
2024/01/29 08:19:50;;;;;;;114.07;44.90;;;4.30;99.90;;;;;;6247172;23;20204;-60
2024/01/29 08:22:18;;;;;;;111.77;40.83;;;4.30;99.90;;;;;;6247289;23;20480;-60
2024/01/29 08:24:45;;;;;;;100.80;40.67;;;4.30;99.90;;;;;;6247380;23;20189;-60
2024/01/29 08:27:13;;;;;;;95.33;37.57;;;4.30;99.90;;;;;;6247225;23;20185;-60
2024/01/29 08:29:40;;;;;;;89.03;37.43;;;4.40;99.90;;;;;;6247212;23;20173;-60
2024/01/29 08:32:07;;;;;;;95.80;35.67;;;4.40;99.90;;;;;;6246697;23;20261;-60
2024/01/29 08:34:35;;;;;;;102.87;38.60;;;4.40;99.90;;;;;;6247094;23;20199;-60
2024/01/29 08:37:02;;;;;;;100.77;39.67;;;4.40;99.90;;;;;;6247025;23;20200;-60
2024/01/29 08:39:30;;;;;;;106.83;38.60;;;4.50;99.90;;;;;;6246814;23;20170;-60
2024/01/29 08:41:57;;;;;;;109.13;40.57;;;4.50;99.90;;;;;;6246342;23;20514;-59
2024/01/29 08:44:25;;;;;;;112.80;39.03;;;4.50;99.90;;;;;;6246411;23;20201;-59
2024/01/29 08:46:52;;;;;;;103.80;37.37;;;4.50;99.90;;;;;;6220893;23;20181;-60
2024/01/29 08:49:19;;;;;;;105.47;38.90;;;4.60;99.90;;;;;;6246202;23;20178;-60
2024/01/29 08:51:46;;;;;;;96.13;39.23;;;4.60;99.90;;;;;;6220803;23;20170;-60
2024/01/29 08:54:13;;;;;;;107.90;40.13;;;4.60;99.90;;;;;;6246099;23;20530;-59
2024/01/29 08:56:41;;;;;;;109.37;36.90;;;4.70;99.90;;;;;;6246980;23;20499;-59
2024/01/29 08:59:08;;;;;;;98.10;38.67;;;4.70;99.90;;;;;;6246363;23;20170;-59
2024/01/29 09:01:35;;;;;;;107.07;40.10;;;4.70;99.90;;;;;;6246813;23;20231;-59
2024/01/29 09:04:03;;;;;;;108.10;41.63;;;4.70;99.90;;;;;;6246521;23;20608;-60
2024/01/29 09:06:30;;;;;;;111.03;41.77;;;4.80;99.90;;;;;;6246545;23;20174;-60
2024/01/29 09:08:57;;;;;;;110.03;40.80;;;4.80;99.90;;;;;;6246655;23;20171;-60
2024/01/29 09:11:24;;;;;;;106.37;39.23;;;4.80;99.90;;;;;;6246322;23;20194;-60
2024/01/29 09:13:51;;;;;;;109.53;41.23;;;4.90;99.90;;;;;;6220407;23;20585;-60
2024/01/29 09:16:18;;;;;;;112.97;41.13;;;4.90;99.90;;;;;;6246537;23;20193;-60
2024/01/29 09:18:45;;;;;;;109.37;39.73;;;4.90;99.90;;;;;;6246573;23;20180;-59
2024/01/29 09:21:12;;;;;;;121.50;41.13;;;4.90;99.90;;;;;;6246522;23;20181;-60
2024/01/29 09:23:39;;;;;;;117.20;42.97;;;4.80;99.90;;;;;;6246475;23;20173;-60
2024/01/29 09:26:07;;;;;;;102.87;39.43;;;4.80;99.90;;;;;;6246391;23;20177;-60
2024/01/29 09:28:34;;;;;;;110.90;39.40;;;4.80;99.90;;;;;;6246601;23;20243;-60
2024/01/29 09:31:02;;;;;;;125.03;42.30;;;4.80;99.90;;;;;;6246310;23;20252;-60
2024/01/29 09:33:29;;;;;;;114.40;40.67;;;4.90;99.90;;;;;;6246076;23;20617;-60
2024/01/29 09:35:56;;;;;;;119.17;41.00;;;4.90;99.90;;;;;;6246567;23;20193;-60
2024/01/29 09:38:23;;;;;;;116.07;41.27;;;5.00;99.90;;;;;;6245954;23;20199;-60
2024/01/29 09:40:52;;;;;;;112.83;41.17;;;5.10;99.90;;;;;;6245998;23;20162;-60
2024/01/29 09:43:21;;;;;;;114.83;40.57;;;5.10;99.90;;;;;;6246004;23;20245;-60
2024/01/29 09:45:50;;;;;;;120.77;41.40;;;5.20;99.90;;;;;;6246325;23;20162;-60
2024/01/29 09:48:18;;;;;;;109.50;40.83;;;5.20;99.90;;;;;;6246454;23;20178;-60
2024/01/29 09:50:48;;;;;;;111.07;41.10;;;5.30;99.90;;;;;;6219443;23;20192;-60
2024/01/29 09:53:20;;;;;;;109.13;41.63;;;5.30;99.90;;;;;;6246106;23;20173;-60
2024/01/29 09:55:48;;;;;;;111.37;40.00;;;5.20;99.90;;;;;;6246175;23;20186;-60
2024/01/29 09:58:15;;;;;;;113.77;44.30;;;5.20;99.90;;;;;;6246328;23;20171;-60
2024/01/29 10:00:42;;;;;;;130.97;45.00;;;5.20;99.90;;;;;;6245974;23;20169;-60
2024/01/29 10:03:19;;;;;;;124.87;43.37;;;5.20;99.90;;;;;;6245805;23;20200;-60
2024/01/29 10:05:47;;;;;;;102.93;41.53;;;5.20;99.90;;;;;;6246423;23;20237;-60
2024/01/29 10:08:15;;;;;;;115.33;40.80;;;5.20;99.90;;;;;;6246630;23;20514;-60
2024/01/29 10:10:43;;;;;;;89.10;37.73;;;5.30;99.90;;;;;;6246234;23;20236;-60
2024/01/29 10:13:10;;;;;;;89.10;37.27;;;5.40;99.90;;;;;;6246321;23;20468;-60
2024/01/29 10:15:38;;;;;;;95.00;39.50;;;5.40;99.90;;;;;;6246295;23;20683;-60
2024/01/29 10:18:10;;;;;;;112.73;41.57;;;5.50;99.90;;;;;;6219812;23;20178;-60
2024/01/29 10:20:38;;;;;;;108.73;41.50;;;5.60;99.90;;;;;;6246346;23;20224;-60
2024/01/29 10:23:05;;;;;;;108.13;41.43;;;5.70;99.90;;;;;;6246171;23;20478;-60
2024/01/29 10:25:34;;;;;;;107.67;40.47;;;5.70;99.90;;;;;;6245972;23;20502;-60
2024/01/29 10:28:11;;;;;;;106.70;40.37;;;5.80;99.90;;;;;;6246214;23;20468;-60
2024/01/29 10:30:42;;;;;;;96.73;40.10;;;5.90;99.90;;;;;;6246698;23;20168;-60
2024/01/29 10:33:09;;;;;;;100.07;39.70;;;5.90;99.90;;;;;;6246127;23;20162;-60
2024/01/29 10:35:37;;;;;;;93.57;37.80;;;5.90;99.90;;;;;;6246416;23;20514;-60
2024/01/29 10:38:06;;;;;;;97.90;38.90;;;5.90;99.90;;;;;;6246047;23;20172;-60
2024/01/29 10:40:35;;;;;;;86.13;36.57;;;5.90;99.90;;;;;;6248397;23;20228;-60
2024/01/29 10:43:03;;;;;;;95.53;38.97;;;5.90;99.90;;;;;;6247914;23;20162;-60
2024/01/29 10:45:40;;;;;;;94.40;40.50;;;5.90;99.90;;;;;;6248007;23;20200;-60
2024/01/29 10:48:19;;;;;;;86.53;37.60;;;6.00;99.90;;;;;;6247577;23;20162;-60
2024/01/29 10:50:50;;;;;;;87.27;38.30;;;6.10;99.90;;;;;;6247832;23;20159;-60
2024/01/29 10:53:18;;;;;;;97.70;41.60;;;6.10;99.90;;;;;;6248273;23;20445;-60
2024/01/29 10:55:49;;;;;;;90.70;37.60;;;6.00;99.90;;;;;;6247560;23;20255;-60
2024/01/29 10:58:16;;;;;;;89.97;38.03;;;6.00;99.90;;;;;;6247724;23;20177;-60
2024/01/29 11:00:45;;;;;;;95.40;39.60;;;6.10;99.90;;;;;;6247568;23;20171;-60
2024/01/29 11:03:12;;;;;;;98.83;41.23;;;6.10;99.90;;;;;;6248119;23;20176;-60
2024/01/29 11:05:44;;;;;;;103.63;41.40;;;6.20;99.90;;;;;;6248034;23;20175;-60
2024/01/29 11:08:21;;;;;;;90.57;39.23;;;6.30;99.90;;;;;;6247479;23;20169;-60
2024/01/29 11:10:48;;;;;;;102.33;41.23;;;6.30;99.90;;;;;;6247924;23;20215;-61
2024/01/29 11:13:17;;;;;;;99.87;41.50;;;6.40;99.90;;;;;;6247588;23;20182;-60
2024/01/29 11:15:44;;;;;;;87.20;38.27;;;6.50;99.90;;;;;;6247468;23;20662;-60
2024/01/29 11:18:12;;;;;;;94.63;40.40;;;6.60;99.90;;;;;;6247727;23;20196;-60
2024/01/29 11:20:40;;;;;;;96.87;41.83;;;6.70;99.90;;;;;;6247477;23;20171;-61
2024/01/29 11:23:10;;;;;;;90.27;40.00;;;6.80;99.90;;;;;;6247598;23;20232;-61
2024/01/29 11:25:51;;;;;;;93.33;40.37;;;6.90;99.90;;;;;;6247801;23;20167;-60
2024/01/29 11:28:18;;;;;;;84.70;36.33;;;6.90;99.90;;;;;;6247632;23;20178;-60
2024/01/29 11:30:55;;;;;;;89.23;37.03;;;6.90;99.40;;;;;;6247566;23;20233;-61
2024/01/29 11:33:24;;;;;;;87.03;38.97;;;6.80;99.00;;;;;;6247324;23;20247;-60
2024/01/29 11:35:56;;;;;;;89.23;38.43;;;6.80;99.00;;;;;;6247481;23;20173;-60
2024/01/29 11:38:24;;;;;;;88.13;39.47;;;6.70;99.00;;;;;;6247481;23;20160;-60
2024/01/29 11:40:51;;;;;;;83.07;38.23;;;6.80;99.00;;;;;;6247208;23;20170;-60
2024/01/29 11:43:20;;;;;;;83.73;41.00;;;6.80;99.10;;;;;;6247199;23;20520;-60
2024/01/29 11:45:53;;;;;;;81.63;37.63;;;6.80;99.10;;;;;;6220644;23;20463;-60
2024/01/29 11:48:23;;;;;;;73.03;37.20;;;6.90;99.10;;;;;;6247849;23;20167;-60
2024/01/29 11:50:52;;;;;;;89.07;39.20;;;7.00;99.10;;;;;;6247213;23;20164;-60
2024/01/29 11:53:23;;;;;;;77.57;36.80;;;7.00;99.00;;;;;;6248055;23;20168;-60
2024/01/29 11:55:50;;;;;;;82.57;38.53;;;7.10;99.00;;;;;;6247172;23;20167;-60
2024/01/29 11:58:19;;;;;;;87.93;38.17;;;7.20;99.00;;;;;;6247319;23;20175;-60
2024/01/29 12:00:51;;;;;;;83.50;37.93;;;7.20;98.90;;;;;;6247040;23;20595;-60
2024/01/29 12:03:23;;;;;;;80.83;38.20;;;7.30;98.80;;;;;;6247145;23;20274;-60
2024/01/29 12:05:54;;;;;;;79.77;36.87;;;7.40;98.70;;;;;;6246787;23;20247;-60
2024/01/29 12:08:26;;;;;;;82.97;37.03;;;7.40;98.50;;;;;;6247379;23;20163;-60
2024/01/29 12:11:02;;;;;;;78.40;36.63;;;7.50;98.40;;;;;;6247062;23;20185;-60
2024/01/29 12:13:30;;;;;;;76.30;36.47;;;7.40;98.10;;;;;;6247238;23;20169;-60
2024/01/29 12:16:00;;;;;;;74.87;35.20;;;7.40;97.90;;;;;;6220500;23;20184;-60
2024/01/29 12:18:29;;;;;;;80.27;37.90;;;7.30;97.60;;;;;;6247743;23;20170;-60
2024/01/29 12:20:57;;;;;;;76.07;37.70;;;7.30;97.70;;;;;;6247094;23;20470;-60
2024/01/29 12:23:24;;;;;;;73.10;35.70;;;7.20;97.70;;;;;;6247290;23;20213;-60
2024/01/29 12:25:56;;;;;;;74.63;36.90;;;7.20;97.70;;;;;;6246748;23;20249;-60
2024/01/29 12:28:25;;;;;;;75.67;35.63;;;7.30;97.80;;;;;;6246953;23;20160;-60
2024/01/29 12:31:05;;;;;;;84.33;36.50;;;7.20;97.50;;;;;;6247221;23;20211;-60
2024/01/29 12:33:35;;;;;;;76.33;35.20;;;7.20;97.50;;;;;;6246928;23;20171;-60
2024/01/29 12:36:16;;;;;;;77.40;36.73;;;7.20;97.50;;;;;;6247129;23;20194;-60